Time;durP1;ratioP1;P1;durP2;ratioP2;P2;SDS_P1;SDS_P2;PMS_P1;PMS_P2;Temp;Humidity;BMP_temperature;BMP_pressure;BME280_temperature;BME280_humidity;BME280_pressure;Samples;Min_cycle;Max_cycle;Signal;HPM_P1;HPM_P2
2022/05/22 00:00:13;;;;;;;1999.90;999.90;;;21.50;95.70;;;;;;4919687;29;20028;-76
2022/05/22 00:02:40;;;;;;;1999.90;999.90;;;21.50;95.70;;;;;;4918732;29;20428;-76
2022/05/22 00:05:08;;;;;;;1999.90;999.90;;;21.50;95.80;;;;;;4919550;29;20107;-76
2022/05/22 00:07:34;;;;;;;1999.90;999.90;;;21.50;96.00;;;;;;4915610;29;20491;-75
2022/05/22 00:10:01;;;;;;;1999.90;999.90;;;21.40;96.10;;;;;;4918095;29;20071;-76
2022/05/22 00:12:27;;;;;;;1999.90;999.90;;;21.40;96.20;;;;;;4923948;29;20079;-85
2022/05/22 00:14:53;;;;;;;1999.90;999.90;;;21.30;96.30;;;;;;4916758;29;20040;-76
2022/05/22 00:17:18;;;;;;;1999.90;999.90;;;21.30;96.50;;;;;;4911830;29;20032;-85
2022/05/22 00:19:44;;;;;;;1999.90;999.90;;;21.20;96.70;;;;;;4919249;29;20491;-85
2022/05/22 00:22:10;;;;;;;1999.90;999.90;;;21.20;96.80;;;;;;4919017;29;20072;-75
2022/05/22 00:24:36;;;;;;;1999.90;999.90;;;21.10;97.00;;;;;;4906889;29;20025;-76
2022/05/22 00:27:05;;;;;;;1999.90;999.90;;;21.00;97.10;;;;;;4919412;29;20120;-76
2022/05/22 00:29:31;;;;;;;1999.90;999.90;;;20.90;97.20;;;;;;4919265;29;20029;-85
2022/05/22 00:31:58;;;;;;;1999.90;999.90;;;20.90;97.30;;;;;;4918037;29;20415;-76
2022/05/22 00:34:24;;;;;;;1999.90;999.90;;;20.80;97.40;;;;;;4919224;29;20032;-85
2022/05/22 00:36:49;;;;;;;1999.90;999.90;;;20.80;97.60;;;;;;4907299;29;20029;-76
2022/05/22 00:39:15;;;;;;;1999.90;999.90;;;20.80;97.60;;;;;;4928542;29;20520;-85
2022/05/22 00:41:48;;;;;;;1999.90;999.90;;;20.70;97.70;;;;;;4918055;29;20028;-76
2022/05/22 00:44:14;;;;;;;1999.90;999.90;;;20.70;97.80;;;;;;4917827;29;20030;-85
2022/05/22 00:46:39;;;;;;;1999.90;999.90;;;20.60;97.80;;;;;;4926699;29;20386;-76
2022/05/22 00:49:12;;;;;;;1999.90;999.90;;;20.70;97.80;;;;;;4930626;29;20039;-84
2022/05/22 00:51:47;;;;;;;1999.90;999.90;;;20.60;97.80;;;;;;4906068;29;20029;-85
2022/05/22 00:54:56;;;;;;;1999.90;999.90;;;20.60;97.70;;;;;;4918882;29;20253;-76
2022/05/22 00:58:02;;;;;;;1999.90;999.90;;;20.60;97.70;;;;;;4898583;29;20093;-86
2022/05/22 01:00:35;;;;;;;1999.90;999.90;;;20.60;97.70;;;;;;4899866;29;20491;-76
2022/05/22 01:05:51;;;;;;;1999.90;999.90;;;20.60;97.80;;;;;;4897864;29;20473;-76
2022/05/22 01:08:17;;;;;;;1999.90;999.90;;;20.60;97.90;;;;;;4897668;29;20103;-85
2022/05/22 01:10:49;;;;;;;1999.90;999.90;;;20.60;97.90;;;;;;4897448;29;20028;-85
2022/05/22 01:13:19;;;;;;;1999.90;999.90;;;20.50;97.90;;;;;;4881018;29;20036;-76
2022/05/22 01:15:46;;;;;;;1999.90;999.90;;;20.50;98.00;;;;;;4897202;29;20279;-85
2022/05/22 01:18:12;;;;;;;1999.90;999.90;;;20.50;98.10;;;;;;4881531;29;20079;-76
2022/05/22 01:20:45;;;;;;;1999.90;999.90;;;20.40;98.10;;;;;;4897054;29;20488;-76
2022/05/22 01:23:11;;;;;;;1999.90;999.90;;;20.40;98.30;;;;;;4897251;29;20032;-76
2022/05/22 01:25:37;;;;;;;1999.90;999.90;;;20.40;98.30;;;;;;4881530;29;20048;-76
2022/05/22 01:28:03;;;;;;;1999.90;999.90;;;20.40;98.40;;;;;;4881470;29;20419;-76
2022/05/22 01:30:29;;;;;;;1999.90;999.90;;;20.30;98.30;;;;;;4899570;29;20040;-76
2022/05/22 01:32:54;;;;;;;1999.90;999.90;;;20.40;98.40;;;;;;4916629;29;20487;-85
2022/05/22 01:35:23;;;;;;;1999.90;999.90;;;20.30;98.40;;;;;;4916912;29;20036;-84
2022/05/22 01:37:50;;;;;;;1999.90;999.90;;;20.30;98.40;;;;;;4922315;29;20054;-76
2022/05/22 01:40:17;;;;;;;1999.90;999.90;;;20.30;98.30;;;;;;4921771;29;20028;-76
2022/05/22 01:42:43;;;;;;;1999.90;999.90;;;20.30;98.30;;;;;;4913568;29;20024;-76
2022/05/22 01:45:12;;;;;;;1999.90;999.90;;;20.30;98.30;;;;;;4915776;29;20686;-85
2022/05/22 01:47:39;;;;;;;1999.90;999.90;;;20.30;98.30;;;;;;4927907;29;20479;-75
2022/05/22 01:50:06;;;;;;;1999.90;999.90;;;20.30;98.30;;;;;;4922148;29;20070;-76
2022/05/22 01:52:32;;;;;;;1999.90;999.90;;;20.30;98.40;;;;;;4917671;29;20377;-85
2022/05/22 01:54:58;;;;;;;1999.90;999.90;;;20.30;98.40;;;;;;4917598;29;20024;-86
2022/05/22 01:57:24;;;;;;;1999.90;999.90;;;20.30;98.40;;;;;;4916457;29;20107;-85
2022/05/22 01:59:49;;;;;;;1999.90;999.90;;;20.30;98.40;;;;;;4917665;29;20055;-76
2022/05/22 02:02:15;;;;;;;1999.90;999.90;;;20.30;98.40;;;;;;4917559;29;20028;-76
2022/05/22 02:04:41;;;;;;;1999.90;999.90;;;20.30;98.40;;;;;;4916305;29;20063;-76
2022/05/22 02:09:51;;;;;;;1999.90;999.90;;;20.20;98.30;;;;;;4917204;29;20538;-76
2022/05/22 02:12:17;;;;;;;1999.90;999.90;;;20.30;98.20;;;;;;4921125;29;20036;-76
2022/05/22 02:14:42;;;;;;;1999.90;999.90;;;20.40;98.10;;;;;;4919656;29;20031;-75
2022/05/22 02:17:09;;;;;;;1999.90;999.90;;;20.40;98.00;;;;;;4917080;29;20036;-76
2022/05/22 02:19:34;;;;;;;1999.90;999.90;;;20.40;98.10;;;;;;4915986;29;20032;-76
2022/05/22 02:22:00;;;;;;;1999.90;999.90;;;20.40;97.90;;;;;;4917024;29;20400;-85
2022/05/22 02:24:26;;;;;;;1999.90;999.90;;;20.40;98.10;;;;;;4915766;29;20118;-84
2022/05/22 02:26:52;;;;;;;1999.90;999.90;;;20.30;98.00;;;;;;4917227;29;20024;-85
2022/05/22 02:29:17;;;;;;;1999.90;999.90;;;20.30;98.10;;;;;;4917435;29;20428;-76
2022/05/22 02:31:43;;;;;;;1999.90;999.90;;;20.30;98.10;;;;;;4917134;29;20492;-76
2022/05/22 02:34:09;;;;;;;1999.90;999.90;;;20.30;98.10;;;;;;4915899;29;20036;-75
2022/05/22 02:36:34;;;;;;;1999.90;999.90;;;20.30;98.10;;;;;;4917083;29;20092;-76
2022/05/22 02:39:00;;;;;;;1999.90;999.90;;;20.20;98.30;;;;;;4926574;29;20467;-75
2022/05/22 02:41:26;;;;;;;1999.90;999.90;;;20.20;98.30;;;;;;4916714;29;20032;-76
2022/05/22 02:43:52;;;;;;;1999.90;999.90;;;20.20;98.50;;;;;;4915813;29;20055;-85
2022/05/22 02:46:19;;;;;;;1999.90;999.90;;;20.10;98.50;;;;;;4917554;29;20377;-76
2022/05/22 02:48:46;;;;;;;1999.90;999.90;;;20.20;98.70;;;;;;4928932;29;20028;-76
2022/05/22 02:51:17;;;;;;;1999.90;999.90;;;20.10;98.50;;;;;;4916887;29;20024;-85
2022/05/22 02:53:43;;;;;;;1999.90;999.90;;;20.10;98.60;;;;;;4916932;29;20563;-76
2022/05/22 02:56:16;;;;;;;1999.90;999.90;;;20.10;98.60;;;;;;4916483;29;20105;-76
2022/05/22 02:58:42;;;;;;;1999.90;999.90;;;20.10;98.80;;;;;;4915634;29;20031;-76
2022/05/22 03:01:08;;;;;;;1999.90;999.90;;;20.10;98.80;;;;;;4915742;29;20499;-76
2022/05/22 03:03:33;;;;;;;1999.90;999.90;;;20.10;99.00;;;;;;4917021;29;20546;-85
2022/05/22 03:08:45;;;;;;;1999.90;999.90;;;20.10;98.90;;;;;;4917829;29;20075;-76
2022/05/22 03:11:11;;;;;;;1999.90;999.90;;;20.10;99.00;;;;;;4916900;29;20126;-85
2022/05/22 03:13:37;;;;;;;1999.90;999.90;;;20.10;99.00;;;;;;4921931;29;20368;-76
2022/05/22 03:16:04;;;;;;;1999.90;999.90;;;20.10;98.90;;;;;;4909507;29;20028;-75
2022/05/22 03:18:30;;;;;;;1999.90;999.90;;;20.10;98.80;;;;;;4916224;29;20028;-76
2022/05/22 03:20:57;;;;;;;1999.90;999.90;;;20.10;98.70;;;;;;4916052;29;20460;-76
2022/05/22 03:23:23;;;;;;;1999.90;999.90;;;20.20;98.80;;;;;;4917118;29;20031;-85
2022/05/22 03:25:49;;;;;;;1999.90;999.90;;;20.20;98.90;;;;;;4915305;29;20030;-75
2022/05/22 03:28:16;;;;;;;1999.90;999.90;;;20.20;98.80;;;;;;4920244;29;20020;-79
2022/05/22 03:30:42;;;;;;;1999.90;999.90;;;20.20;99.00;;;;;;4920895;29;20060;-76
2022/05/22 03:33:08;;;;;;;1999.90;999.90;;;20.20;99.10;;;;;;4920198;29;20024;-85
2022/05/22 03:35:36;;;;;;;1999.90;999.90;;;20.10;98.90;;;;;;4920076;29;20024;-76
2022/05/22 03:38:04;;;;;;;1999.90;999.90;;;20.10;99.10;;;;;;4926893;29;20016;-76
2022/05/22 03:40:30;;;;;;;1999.90;999.90;;;20.00;99.30;;;;;;4924481;29;20484;-76
2022/05/22 03:42:56;;;;;;;1999.90;999.90;;;20.00;99.40;;;;;;4915146;29;20424;-76
2022/05/22 03:45:22;;;;;;;1999.90;999.90;;;20.00;99.00;;;;;;4916829;29;20372;-84
2022/05/22 03:47:47;;;;;;;1999.90;999.90;;;20.00;98.80;;;;;;4933245;29;20091;-75
2022/05/22 03:50:14;;;;;;;1999.90;999.90;;;20.00;98.90;;;;;;4922224;29;20043;-76
2022/05/22 03:52:43;;;;;;;1999.90;999.90;;;20.00;99.00;;;;;;4925317;29;20049;-85
2022/05/22 03:55:11;;;;;;;1999.90;999.90;;;20.00;98.80;;;;;;4919716;29;20558;-76
2022/05/22 03:57:37;;;;;;;1999.90;999.90;;;20.00;98.80;;;;;;4926209;29;20032;-85
2022/05/22 04:00:08;;;;;;;1999.90;999.90;;;20.00;98.80;;;;;;4919056;29;20031;-76
2022/05/22 04:02:35;;;;;;;1999.90;999.90;;;20.00;98.90;;;;;;4919574;29;20044;-76
2022/05/22 04:05:06;;;;;;;1999.90;999.90;;;20.00;98.90;;;;;;4918103;29;20377;-84
2022/05/22 04:07:38;;;;;;;1999.90;999.90;;;20.00;98.70;;;;;;4919672;29;20028;-76
2022/05/22 04:10:05;;;;;;;1999.90;999.90;;;20.00;98.70;;;;;;4919765;29;20488;-76
2022/05/22 04:12:31;;;;;;;1999.90;999.90;;;20.00;98.60;;;;;;4923263;29;20036;-76
2022/05/22 04:14:57;;;;;;;1999.90;999.90;;;20.00;98.60;;;;;;4918381;29;20039;-76
2022/05/22 04:17:23;;;;;;;1999.90;999.90;;;20.00;98.80;;;;;;4919117;29;20052;-85
2022/05/22 04:19:48;;;;;;;1999.90;999.90;;;19.90;98.90;;;;;;4919031;29;20029;-84
2022/05/22 04:22:16;;;;;;;1999.90;999.90;;;19.90;99.10;;;;;;4919712;29;20024;-76
2022/05/22 04:27:27;;;;;;;1999.90;999.90;;;19.80;99.30;;;;;;4914875;29;20030;-76
2022/05/22 04:29:52;;;;;;;1999.90;999.90;;;19.80;99.10;;;;;;4918244;29;20024;-76
2022/05/22 04:32:18;;;;;;;1999.90;999.90;;;19.80;99.20;;;;;;4919029;29;20028;-76
2022/05/22 04:34:43;;;;;;;1999.90;999.90;;;19.80;99.40;;;;;;4917949;29;20036;-76
2022/05/22 04:37:10;;;;;;;1999.90;999.90;;;19.70;99.50;;;;;;4918559;29;20064;-76
2022/05/22 04:39:35;;;;;;;1999.90;999.90;;;19.70;99.50;;;;;;4928287;29;20479;-76
2022/05/22 04:42:01;;;;;;;1999.90;999.90;;;19.70;99.40;;;;;;4917517;29;20074;-84
2022/05/22 04:44:27;;;;;;;1999.90;999.90;;;19.80;99.40;;;;;;4918724;29;20036;-85
2022/05/22 04:46:52;;;;;;;1999.90;999.90;;;19.80;99.30;;;;;;4920856;29;20024;-76
2022/05/22 04:49:18;;;;;;;1999.90;999.90;;;19.80;99.00;;;;;;4918733;29;20491;-85
2022/05/22 04:51:44;;;;;;;1999.90;999.90;;;19.80;99.10;;;;;;4918445;29;20107;-76
2022/05/22 04:54:11;;;;;;;1999.90;999.90;;;19.80;98.70;;;;;;4917618;29;20027;-76
2022/05/22 04:56:37;;;;;;;1999.90;999.90;;;19.80;98.40;;;;;;4928658;29;20036;-76
2022/05/22 04:59:03;;;;;;;1999.90;999.90;;;19.90;98.40;;;;;;4918476;29;20495;-76
2022/05/22 05:01:29;;;;;;;1999.90;999.90;;;19.90;98.50;;;;;;4930664;29;20027;-76
2022/05/22 05:03:55;;;;;;;1999.90;999.90;;;20.00;98.30;;;;;;4924448;29;20027;-76
2022/05/22 05:06:20;;;;;;;1999.90;999.90;;;20.00;98.70;;;;;;4917021;29;20534;-75
2022/05/22 05:08:46;;;;;;;1999.90;999.90;;;19.80;99.80;;;;;;4918828;29;20447;-76
2022/05/22 05:11:13;;;;;;;1999.90;999.90;;;19.60;99.90;;;;;;4919723;29;20056;-75
2022/05/22 05:13:39;;;;;;;1999.90;999.90;;;19.20;99.90;;;;;;4919694;29;20088;-75
2022/05/22 05:16:10;;;;;;;1999.90;999.90;;;18.70;99.90;;;;;;4914267;29;20020;-85
2022/05/22 05:18:38;;;;;;;1999.90;999.90;;;18.40;99.90;;;;;;4918483;29;20020;-85
2022/05/22 05:21:07;;;;;;;1999.90;999.90;;;18.20;99.90;;;;;;4914024;29;20094;-75
2022/05/22 05:23:34;;;;;;;1999.90;999.90;;;18.30;99.90;;;;;;4909197;29;20028;-75
2022/05/22 05:25:59;;;;;;;1999.90;999.90;;;18.40;99.90;;;;;;4917219;29;20028;-75
2022/05/22 05:28:26;;;;;;;1999.90;999.90;;;18.50;99.90;;;;;;4918220;29;20032;-84
2022/05/22 05:30:51;;;;;;;1999.90;999.90;;;18.60;99.90;;;;;;4918696;29;20083;-75
2022/05/22 05:33:17;;;;;;;1999.90;999.90;;;18.70;99.90;;;;;;4918607;29;20036;-75
2022/05/22 05:35:44;;;;;;;1999.90;999.90;;;18.80;99.90;;;;;;4918082;29;20435;-75
2022/05/22 05:38:10;;;;;;;1999.90;999.90;;;18.90;99.90;;;;;;4925270;29;20055;-75
2022/05/22 05:40:36;;;;;;;1999.90;999.90;;;18.90;99.90;;;;;;4920242;29;20024;-84
2022/05/22 05:43:02;;;;;;;1999.90;999.90;;;18.90;99.90;;;;;;4916120;29;20094;-76
2022/05/22 05:45:28;;;;;;;1999.90;999.90;;;19.00;99.90;;;;;;4917193;29;20032;-84
2022/05/22 05:47:54;;;;;;;1999.90;999.90;;;19.00;99.90;;;;;;4928195;29;20028;-76
2022/05/22 05:50:22;;;;;;;1999.90;999.90;;;19.10;99.90;;;;;;4919710;29;20027;-76
2022/05/22 05:52:55;;;;;;;1999.90;999.90;;;19.20;99.90;;;;;;4906039;29;20028;-84
2022/05/22 05:55:21;;;;;;;1999.90;999.90;;;19.30;99.90;;;;;;4914897;29;20039;-76
2022/05/22 05:57:48;;;;;;;1999.90;999.90;;;19.30;99.90;;;;;;4913249;29;20036;-86
2022/05/22 06:00:17;;;;;;;1999.90;999.90;;;19.40;99.90;;;;;;4921111;29;20031;-76
2022/05/22 06:02:43;;;;;;;1999.90;999.90;;;19.40;99.90;;;;;;4925076;29;20024;-75
2022/05/22 06:05:11;;;;;;;1999.90;999.90;;;19.30;99.90;;;;;;4912823;29;20034;-85
2022/05/22 06:07:37;;;;;;;1999.90;999.90;;;19.30;99.90;;;;;;4909288;29;20123;-75
2022/05/22 06:10:06;;;;;;;1999.90;999.90;;;19.40;99.90;;;;;;4916367;29;20384;-76
2022/05/22 06:12:31;;;;;;;1999.90;999.90;;;19.50;99.90;;;;;;4921682;29;20562;-76
2022/05/22 06:14:57;;;;;;;1999.90;999.90;;;19.50;99.90;;;;;;4916049;29;20036;-76
2022/05/22 06:17:37;;;;;;;1999.90;999.90;;;19.60;99.90;;;;;;4915860;29;20044;-76
2022/05/22 06:20:07;;;;;;;1999.90;999.90;;;19.70;99.90;;;;;;4898116;29;20105;-76
2022/05/22 06:22:34;;;;;;;1999.90;999.90;;;19.80;99.90;;;;;;4912469;29;20036;-76
2022/05/22 06:25:01;;;;;;;1999.90;999.90;;;20.00;99.90;;;;;;4908824;29;20021;-76
2022/05/22 06:27:27;;;;;;;1999.90;999.90;;;20.10;99.90;;;;;;4909938;29;20468;-86
2022/05/22 06:29:53;;;;;;;1999.90;999.90;;;20.20;99.90;;;;;;4905785;29;20024;-76
2022/05/22 06:32:20;;;;;;;1999.90;999.90;;;20.20;99.90;;;;;;4913431;29;20498;-76
2022/05/22 06:34:47;;;;;;;1999.90;999.90;;;20.10;99.90;;;;;;4907453;29;20027;-76
2022/05/22 06:37:17;;;;;;;1999.90;999.90;;;20.10;99.90;;;;;;4915939;29;20484;-85
2022/05/22 06:39:52;;;;;;;1999.90;999.90;;;19.90;99.90;;;;;;4926705;29;20051;-75
2022/05/22 06:42:34;;;;;;;1999.90;999.90;;;19.90;99.90;;;;;;4916880;29;20028;-75
2022/05/22 06:45:06;;;;;;;1999.90;999.90;;;20.00;99.90;;;;;;4916723;29;20020;-75
2022/05/22 06:47:34;;;;;;;1999.90;999.90;;;20.00;99.90;;;;;;4925394;29;20035;-75
2022/05/22 06:50:04;;;;;;;1999.90;999.90;;;20.00;99.90;;;;;;4921136;29;20032;-75
2022/05/22 06:52:32;;;;;;;1999.90;999.90;;;20.20;99.90;;;;;;4917148;29;20032;-84
2022/05/22 06:54:58;;;;;;;1999.90;999.90;;;20.30;99.90;;;;;;4903826;29;20036;-75
2022/05/22 06:57:24;;;;;;;1999.90;999.90;;;20.40;99.90;;;;;;4922939;29;20523;-77
2022/05/22 06:59:54;;;;;;;1999.90;999.90;;;20.50;99.90;;;;;;4917338;29;20025;-75
2022/05/22 07:02:20;;;;;;;1999.90;999.90;;;20.60;99.90;;;;;;4931625;29;20024;-75
2022/05/22 07:04:45;;;;;;;1999.90;999.90;;;20.60;99.90;;;;;;4919822;29;20391;-76
2022/05/22 07:07:11;;;;;;;1999.90;999.90;;;20.80;99.90;;;;;;4919594;29;20032;-76
2022/05/22 07:09:37;;;;;;;1999.90;999.90;;;20.90;99.90;;;;;;4920647;29;20120;-75
2022/05/22 07:12:10;;;;;;;1999.90;999.90;;;21.10;99.80;;;;;;4922601;29;20040;-76
2022/05/22 07:14:37;;;;;;;1999.90;999.90;;;21.40;99.80;;;;;;4921171;29;20400;-86
2022/05/22 07:17:04;;;;;;;1999.90;999.90;;;21.70;99.20;;;;;;4916911;29;20032;-86
2022/05/22 07:19:34;;;;;;;1999.90;999.90;;;22.00;98.90;;;;;;4920276;29;20084;-86
2022/05/22 07:22:01;;;;;;;1999.90;999.90;;;22.20;98.30;;;;;;4919097;29;20039;-76
2022/05/22 07:24:28;;;;;;;1999.90;999.90;;;22.30;98.30;;;;;;4905735;29;20044;-85
2022/05/22 07:26:54;;;;;;;1999.90;999.90;;;22.60;98.00;;;;;;4920481;29;20032;-76
2022/05/22 07:29:19;;;;;;;1999.90;999.90;;;22.80;98.00;;;;;;4916290;29;20028;-86
2022/05/22 07:31:45;;;;;;;1999.90;999.90;;;22.90;97.80;;;;;;4911735;29;20032;-76
2022/05/22 07:34:12;;;;;;;1999.90;999.90;;;22.90;98.20;;;;;;4916097;29;20126;-76
2022/05/22 07:36:38;;;;;;;1999.90;999.90;;;22.80;97.70;;;;;;4911513;29;20028;-85
2022/05/22 07:39:04;;;;;;;1999.90;999.90;;;22.80;97.40;;;;;;4930263;29;20035;-85
2022/05/22 07:41:31;;;;;;;1999.90;999.90;;;23.10;97.50;;;;;;4915975;29;20103;-86
2022/05/22 07:43:58;;;;;;;1999.90;999.90;;;24.20;97.10;;;;;;4917747;29;20024;-86
2022/05/22 07:46:23;;;;;;;1999.90;999.90;;;25.10;95.70;;;;;;4921767;29;20024;-85
2022/05/22 07:48:49;;;;;;;1999.90;999.90;;;26.30;94.20;;;;;;4919016;29;20067;-76
2022/05/22 07:51:15;;;;;;;1999.90;999.90;;;27.30;93.30;;;;;;4919903;29;20032;-86
2022/05/22 07:53:42;;;;;;;1999.90;999.90;;;28.50;92.00;;;;;;4918853;29;20032;-76
2022/05/22 07:56:08;;;;;;;1999.90;999.90;;;28.90;91.00;;;;;;4919468;29;20519;-85
2022/05/22 07:58:34;;;;;;;1999.90;999.90;;;28.60;90.80;;;;;;4920138;29;20080;-77
2022/05/22 08:01:01;;;;;;;1999.90;999.90;;;28.10;91.60;;;;;;4919676;29;20115;-76
2022/05/22 08:03:28;;;;;;;1999.90;999.90;;;27.90;91.90;;;;;;4919591;29;20040;-86
2022/05/22 08:05:55;;;;;;;1999.90;999.90;;;28.20;92.10;;;;;;4915267;29;20031;-76
2022/05/22 08:08:22;;;;;;;1999.90;999.90;;;28.70;91.30;;;;;;4917708;29;20026;-76
2022/05/22 08:10:48;;;;;;;1999.90;999.90;;;29.00;91.40;;;;;;4907869;29;20036;-76
2022/05/22 08:13:14;;;;;;;1999.90;999.90;;;29.20;90.80;;;;;;4923499;29;20107;-76
2022/05/22 08:15:42;;;;;;;1999.90;999.90;;;29.30;90.90;;;;;;4919195;29;20036;-76
2022/05/22 08:18:08;;;;;;;1999.90;999.90;;;28.80;91.30;;;;;;4919207;29;20024;-85
2022/05/22 08:20:36;;;;;;;1999.90;999.90;;;28.50;92.00;;;;;;4919272;29;20052;-83
2022/05/22 08:23:05;;;;;;;1999.90;999.90;;;29.40;90.90;;;;;;4918285;29;20035;-76
2022/05/22 08:25:32;;;;;;;1999.90;999.90;;;31.30;90.00;;;;;;4919461;29;20017;-86
2022/05/22 08:27:58;;;;;;;1999.90;999.90;;;31.90;89.30;;;;;;4917388;29;20488;-76
2022/05/22 08:30:28;;;;;;;1999.90;999.90;;;32.30;87.00;;;;;;4906925;29;20484;-86
2022/05/22 08:32:58;;;;;;;1999.90;999.90;;;32.70;87.00;;;;;;4919014;29;20028;-85
2022/05/22 08:35:32;;;;;;;1999.90;999.90;;;33.40;85.50;;;;;;4919359;29;20060;-85
2022/05/22 08:37:59;;;;;;;1999.90;999.90;;;33.90;84.20;;;;;;4917934;29;20036;-76
2022/05/22 08:40:28;;;;;;;1999.90;999.90;;;33.60;84.00;;;;;;4919128;29;20024;-77
2022/05/22 08:42:54;;;;;;;1999.90;999.90;;;33.60;83.90;;;;;;4918870;29;20036;-76
2022/05/22 08:45:41;;;;;;;1999.90;999.90;;;31.50;86.70;;;;;;4918723;29;20020;-76
2022/05/22 08:48:08;;;;;;;1999.90;999.90;;;30.30;88.70;;;;;;4923167;29;20079;-76
2022/05/22 08:50:36;;;;;;;1999.90;999.90;;;30.00;90.50;;;;;;4918412;29;20566;-85
2022/05/22 08:53:26;;;;;;;1999.90;999.90;;;30.90;88.90;;;;;;4917737;29;20104;-85
2022/05/22 08:58:56;;;;;;;1999.90;999.90;;;27.70;92.70;;;;;;4919227;29;20243;-76
2022/05/22 09:01:40;;;;;;;;;;;27.60;92.70;;;;;;4919190;29;20450;-76
2022/05/22 09:04:30;;;;;;;1999.90;999.90;;;27.70;92.70;;;;;;4917340;29;19950;-76
2022/05/22 09:07:08;;;;;;;1999.90;999.90;;;29.10;92.00;;;;;;4917933;29;20032;-76
2022/05/22 09:09:38;;;;;;;1999.90;999.90;;;30.60;90.30;;;;;;4918855;29;20068;-77
2022/05/22 09:12:25;;;;;;;1999.90;999.90;;;32.20;88.80;;;;;;4916958;29;20568;-76
2022/05/22 09:15:12;;;;;;;1999.90;999.90;;;33.40;86.20;;;;;;4934836;29;20091;-77
2022/05/22 09:17:55;;;;;;;1999.90;999.90;;;33.80;85.40;;;;;;4918107;29;20042;-77
2022/05/22 09:20:27;;;;;;;1999.90;999.90;;;33.30;85.10;;;;;;4920461;29;20495;-76
2022/05/22 09:23:22;;;;;;;1999.90;999.90;;;33.90;84.80;;;;;;4918384;29;20040;-77
2022/05/22 09:25:54;;;;;;;1999.90;999.90;;;34.40;84.80;;;;;;4917788;29;20515;-85
2022/05/22 09:28:42;;;;;;;1999.90;999.90;;;34.70;84.10;;;;;;4913992;29;20063;-76
2022/05/22 09:31:19;;;;;;;1999.90;999.90;;;35.20;83.10;;;;;;4916327;29;20099;-77
2022/05/22 09:34:12;;;;;;;1999.90;999.90;;;35.00;84.40;;;;;;4916925;29;20040;-76
2022/05/22 09:37:07;;;;;;;1999.90;999.90;;;34.90;84.90;;;;;;4916576;29;20024;-76
2022/05/22 09:39:43;;;;;;;1999.90;999.90;;;34.00;86.00;;;;;;4906982;29;20110;-85
2022/05/22 09:42:29;;;;;;;1999.90;999.90;;;34.40;85.30;;;;;;4917900;29;20048;-76
2022/05/22 09:45:07;;;;;;;1999.90;999.90;;;34.50;85.70;;;;;;4910572;29;20028;-84
2022/05/22 09:47:55;;;;;;;1999.90;999.90;;;35.70;83.80;;;;;;4928488;29;20483;-85
2022/05/22 09:51:01;;;;;;;1999.90;999.90;;;36.10;83.40;;;;;;4920315;29;20040;-76
2022/05/22 09:53:46;;;;;;;1999.90;999.90;;;35.20;84.60;;;;;;4917806;29;20059;-76
2022/05/22 09:56:11;;;;;;;1999.90;999.90;;;35.40;85.30;;;;;;4915945;29;20044;-85
2022/05/22 09:58:46;;;;;;;1999.90;999.90;;;36.60;82.20;;;;;;4916565;29;20032;-84
2022/05/22 10:01:33;;;;;;;1999.90;999.90;;;36.50;81.80;;;;;;4929034;29;20690;-77
2022/05/22 10:04:07;;;;;;;1999.90;999.90;;;34.90;84.60;;;;;;4907314;29;20395;-84
2022/05/22 10:06:52;;;;;;;1999.90;999.90;;;34.70;85.70;;;;;;4915953;29;20555;-84
2022/05/22 10:09:50;;;;;;;1999.90;999.90;;;34.90;84.10;;;;;;4905328;29;20024;-76
2022/05/22 10:12:42;;;;;;;1999.90;999.90;;;34.30;85.40;;;;;;4900040;29;20051;-77
2022/05/22 10:15:11;;;;;;;1999.90;999.90;;;32.50;88.90;;;;;;4905452;29;20387;-84
2022/05/22 10:18:00;;;;;;;1999.90;999.90;;;32.60;88.20;;;;;;4908692;29;20028;-84
2022/05/22 10:20:53;;;;;;;1999.90;999.90;;;33.50;87.10;;;;;;4917997;29;20373;-84
2022/05/22 10:23:35;;;;;;;1999.90;999.90;;;33.60;86.60;;;;;;4905790;29;20510;-83
2022/05/22 10:26:10;;;;;;;;;;;33.50;86.90;;;;;;4917683;29;20020;-76
2022/05/22 10:28:44;;;;;;;1999.90;999.90;;;33.30;88.10;;;;;;4915828;29;19907;-84
2022/05/22 10:31:17;;;;;;;1999.90;999.90;;;32.80;88.60;;;;;;4915345;29;20575;-84
2022/05/22 10:34:14;;;;;;;1999.90;999.90;;;33.20;89.20;;;;;;4917441;29;20024;-83
2022/05/22 10:36:45;;;;;;;1999.90;999.90;;;34.00;87.60;;;;;;4917017;29;20032;-77
2022/05/22 10:39:13;;;;;;;1999.90;999.90;;;34.30;87.80;;;;;;4927608;29;20420;-76
2022/05/22 10:44:46;;;;;;;1999.90;999.90;;;36.20;83.90;;;;;;4908088;29;20462;-84
2022/05/22 10:47:13;;;;;;;1999.90;999.90;;;35.20;85.30;;;;;;4921662;29;20123;-84
2022/05/22 10:49:44;;;;;;;1999.90;999.90;;;34.00;87.20;;;;;;4924448;29;20368;-84
2022/05/22 10:52:13;;;;;;;1999.90;999.90;;;32.70;89.00;;;;;;4916763;29;20038;-76
2022/05/22 10:54:46;;;;;;;1999.90;999.90;;;32.30;90.40;;;;;;4916212;29;20084;-76
2022/05/22 10:57:13;;;;;;;1999.90;999.90;;;32.30;90.40;;;;;;4916376;29;20096;-83
2022/05/22 10:59:39;;;;;;;1999.90;999.90;;;32.80;90.40;;;;;;4916873;29;20032;-84
2022/05/22 11:02:20;;;;;;;1999.90;999.90;;;34.10;89.20;;;;;;4927186;29;20036;-77
2022/05/22 11:04:47;;;;;;;1999.90;999.90;;;35.00;87.20;;;;;;4917101;29;20020;-84
2022/05/22 11:07:14;;;;;;;1999.90;999.90;;;35.00;86.20;;;;;;4917126;29;20493;-84
2022/05/22 11:09:49;;;;;;;1999.90;999.90;;;35.30;87.10;;;;;;4916839;29;20509;-85
2022/05/22 11:12:22;;;;;;;1999.90;999.90;;;36.50;85.00;;;;;;4920447;29;20040;-83
2022/05/22 11:14:48;;;;;;;1999.90;999.90;;;36.90;84.20;;;;;;4916963;29;20380;-84
2022/05/22 11:17:15;;;;;;;1999.90;999.90;;;37.30;83.30;;;;;;4916568;29;20127;-84
2022/05/22 11:19:43;;;;;;;1999.90;999.90;;;37.30;82.80;;;;;;4916984;29;20104;-76
2022/05/22 11:22:09;;;;;;;1999.90;999.90;;;37.50;82.80;;;;;;4916734;29;20040;-83
2022/05/22 11:24:54;;;;;;;1999.90;999.90;;;37.40;82.50;;;;;;4910922;29;20076;-84
2022/05/22 11:27:31;;;;;;;1999.90;999.90;;;37.10;82.90;;;;;;4911111;29;20046;-84
2022/05/22 11:30:42;;;;;;;1999.90;999.90;;;37.40;83.10;;;;;;4906283;29;20028;-77
2022/05/22 11:33:13;;;;;;;1999.90;999.90;;;37.50;82.00;;;;;;4904864;29;20491;-84
2022/05/22 11:35:51;;;;;;;1999.90;999.90;;;37.60;82.70;;;;;;4916681;29;20032;-77
2022/05/22 11:38:44;;;;;;;1999.90;999.90;;;37.30;82.30;;;;;;4924910;29;20086;-84
2022/05/22 11:41:35;;;;;;;1999.90;999.90;;;37.10;83.40;;;;;;4915033;29;20028;-83
2022/05/22 11:44:16;;;;;;;1999.90;999.90;;;36.30;83.40;;;;;;4916473;29;20432;-84
2022/05/22 11:46:59;;;;;;;1999.90;999.90;;;35.70;84.40;;;;;;4918674;29;20032;-77
2022/05/22 11:49:52;;;;;;;1999.90;999.90;;;36.00;85.60;;;;;;4930168;29;20024;-84
2022/05/22 11:55:11;;;;;;;1999.90;999.90;;;36.20;84.90;;;;;;4920371;29;20608;-76
2022/05/22 11:57:59;;;;;;;1999.90;999.90;;;36.00;84.30;;;;;;4921372;29;20459;-85
2022/05/22 12:00:32;;;;;;;1999.90;999.90;;;36.30;84.20;;;;;;4919261;29;20032;-84
2022/05/22 12:03:01;;;;;;;1999.90;999.90;;;36.70;84.90;;;;;;4920961;29;20435;-83
2022/05/22 12:05:51;;;;;;;1999.90;999.90;;;37.20;83.70;;;;;;4918920;29;20391;-85
2022/05/22 12:08:56;;;;;;;1999.90;999.90;;;37.50;82.60;;;;;;4919767;29;20066;-76
2022/05/22 12:12:11;;;;;;;1999.90;999.90;;;37.90;82.10;;;;;;4915555;29;20036;-76
2022/05/22 12:14:52;;;;;;;1999.90;999.90;;;37.00;82.30;;;;;;4902139;29;20048;-76
2022/05/22 12:17:42;;;;;;;1999.90;999.90;;;36.20;83.50;;;;;;4919414;29;20028;-83
2022/05/22 12:20:13;;;;;;;1999.90;999.90;;;36.40;83.80;;;;;;4907967;29;20822;-84
2022/05/22 12:25:29;;;;;;;1999.90;999.90;;;36.10;84.40;;;;;;4919605;29;20282;-76
2022/05/22 12:27:56;;;;;;;1999.90;999.90;;;35.40;85.30;;;;;;4919412;29;20103;-84
2022/05/22 12:30:28;;;;;;;1999.90;999.90;;;35.80;84.50;;;;;;4917867;29;20059;-77
2022/05/22 12:33:00;;;;;;;1999.90;999.90;;;35.80;85.60;;;;;;4914716;29;20037;-83
2022/05/22 12:35:26;;;;;;;1999.90;999.90;;;36.30;84.10;;;;;;4912215;29;20040;-78
2022/05/22 12:38:00;;;;;;;1999.90;999.90;;;35.50;84.10;;;;;;4922837;29;20023;-83
2022/05/22 12:40:45;;;;;;;1999.90;999.90;;;34.60;86.20;;;;;;4924337;29;20099;-76